Group: 2FAST4U

Releases: 13.926 · Total size: 1,01 TB

First: 2017-06-13 · Last: 2018-03-02

By section: MP3/FLAC 13.926 (1,01 TB)

Release Section Group Size Files Date ↓
VA-Club_Cuts_Vol_3-WEB-2017-2FAST4U MP3/FLAC 2FAST4U 72,38 MB 9 2017-10-19
The_Mountain_People_111_Feat_Robert_Martin-Life_For_The_Better_The_Remixes-WEB-2017-2FAST4U MP3/FLAC 2FAST4U 79,92 MB 9 2017-10-19
Vicky_Montefusco-Reflections-WEB-2017-2FAST4U MP3/FLAC 2FAST4U 66,90 MB 8 2017-10-19
Bedford_Falls_Players-Moon-WEB-2017-2FAST4U MP3/FLAC 2FAST4U 63,05 MB 7 2017-10-19
Grizzle-Consort-WEB-2017-2FAST4U MP3/FLAC 2FAST4U 42,16 MB 8 2017-10-19
Tyler_Rouse-Gex-WEB-2017-2FAST4U MP3/FLAC 2FAST4U 66,15 MB 8 2017-10-19
VA-Trap_Rulezzz-WEB-2017-2FAST4U MP3/FLAC 2FAST4U 41,39 MB 10 2017-10-19
Jodie-The_Meeting-WEB-2017-2FAST4U MP3/FLAC 2FAST4U 83,11 MB 10 2017-10-19
Valy_Mo-A_Nightshift_With_Valy_Mo-WEB-2017-2FAST4U MP3/FLAC 2FAST4U 43,36 MB 10 2017-10-19
62_Miles_From_Space-Time_Shifts-WEB-2017-2FAST4U MP3/FLAC 2FAST4U 35,93 MB 7 2017-10-19
Reinier_Zonneveld-The_Summoning_EP-WEB-2017-2FAST4U MP3/FLAC 2FAST4U 59,91 MB 8 2017-10-19
Gary_Spears-Selective_Reorganization-WEB-2017-2FAST4U MP3/FLAC 2FAST4U 47,39 MB 8 2017-10-19
Erly_Tepshi-Dead_Space_EP-WEB-2017-2FAST4U MP3/FLAC 2FAST4U 51,66 MB 7 2017-10-19
Alex_Mota-The_Preacher-WEB-2017-2FAST4U MP3/FLAC 2FAST4U 46,38 MB 7 2017-10-19
Steek-My_Deep_Mine-WEB-2017-2FAST4U MP3/FLAC 2FAST4U 39,96 MB 7 2017-10-19
Addvibe_Featuring_Jay_Nemor-Curious-WEB-2017-2FAST4U MP3/FLAC 2FAST4U 46,32 MB 7 2017-10-19
Dennis_Bunas-Valley_Of_Cadence-WEB-2017-2FAST4U MP3/FLAC 2FAST4U 37,59 MB 7 2017-10-19
Ulyssa_Ebony-Razzias_In_China-WEB-2017-2FAST4U MP3/FLAC 2FAST4U 163,43 MB 21 2017-10-19
Atze_Ton-Do_You_Wanna_Jump-WEB-2017-2FAST4U MP3/FLAC 2FAST4U 36,45 MB 7 2017-10-19
VA-Ibiza_Summer_Calling_-_The_Closing_2017-WEB-2017-2FAST4U MP3/FLAC 2FAST4U 338,08 MB 29 2017-10-19
Froody_Frogs-Pampered_To_A_Pulp-WEB-2017-2FAST4U MP3/FLAC 2FAST4U 147,40 MB 18 2017-10-19
VA-Global_Experiment-WEB-2017-2FAST4U MP3/FLAC 2FAST4U 254,41 MB 19 2017-10-19
Prodigious_Web_Sites-Unspokenwords-WEB-2017-2FAST4U MP3/FLAC 2FAST4U 148,50 MB 19 2017-10-19
Lindstrm-Its_Alright_Between_Us_As_It_Is-WEB-2017-2FAST4U MP3/FLAC 2FAST4U 117,40 MB 13 2017-10-19
Country_Florist-Waveland-WEB-2017-2FAST4U MP3/FLAC 2FAST4U 102,17 MB 15 2017-10-19
Sugai_Ken-Ukabazumorezu-WEB-2017-2FAST4U MP3/FLAC 2FAST4U 76,60 MB 15 2017-10-19
Novo_Line-Dyad-WEB-2017-2FAST4U MP3/FLAC 2FAST4U 170,53 MB 18 2017-10-19
Wil_Warren-Flowments-WEB-2017-2FAST4U MP3/FLAC 2FAST4U 136,45 MB 18 2017-10-19
VA-Say_Deep_Vol_1-WEB-2017-2FAST4U MP3/FLAC 2FAST4U 117,68 MB 12 2017-10-19
VA-Skill_Box_Vol_13_(Ade_Edition)-WEB-2017-2FAST4U MP3/FLAC 2FAST4U 148,00 MB 13 2017-10-19
R2M-Lethal_Club_Wax_Vol_4-WEB-2017-2FAST4U MP3/FLAC 2FAST4U 47,64 MB 9 2017-10-19
Fodder_In_The_Mirror-Pharm-WEB-2017-2FAST4U MP3/FLAC 2FAST4U 93,38 MB 12 2017-10-19
Los_Knock_Knocks-Procrastination-WEB-2017-2FAST4U MP3/FLAC 2FAST4U 93,49 MB 13 2017-10-19
Easy_Tyger-Run-WEB-2017-2FAST4U MP3/FLAC 2FAST4U 53,89 MB 9 2017-10-19
Degiheugi-Bagatelle-WEB-2017-2FAST4U MP3/FLAC 2FAST4U 131,51 MB 19 2017-10-19
Abominable_Princesses-Tzaddik-WEB-2017-2FAST4U MP3/FLAC 2FAST4U 155,51 MB 18 2017-10-19
Happy_Suffering-Circumstances-WEB-2017-2FAST4U MP3/FLAC 2FAST4U 177,23 MB 19 2017-10-19
Timorous_Afflictions-Neptune_Notebook-WEB-2017-2FAST4U MP3/FLAC 2FAST4U 170,21 MB 21 2017-10-19
Sunsquabi-Live_In_Boulder-WEB-2017-2FAST4U MP3/FLAC 2FAST4U 228,55 MB 17 2017-10-19
Angry_Swan-Baptists_At_Our_Barbecue-WEB-2017-2FAST4U MP3/FLAC 2FAST4U 135,53 MB 17 2017-10-19
Rousing_House-Deep_Kaif-WEB-2017-2FAST4U MP3/FLAC 2FAST4U 69,63 MB 8 2017-10-19
New_York_Jazz_Deluxe-Lounge_Jazz_Deluxe-WEB-2017-2FAST4U MP3/FLAC 2FAST4U 53,70 MB 14 2017-10-19
Java_Jazz_Cafe-Loca_Mocha-WEB-2017-2FAST4U MP3/FLAC 2FAST4U 48,83 MB 22 2017-10-19
Infinigenesis-Icarus-WEB-2017-2FAST4U MP3/FLAC 2FAST4U 45,71 MB 9 2017-10-19
VA-Electronic_Dopeness_Vol_2-WEB-2017-2FAST4U MP3/FLAC 2FAST4U 144,82 MB 14 2017-10-19
VA-Gema_Freie_Musik_-_Veranstaltung_and_Gastronomie-WEB-2017-2FAST4U MP3/FLAC 2FAST4U 145,34 MB 22 2017-10-19
Victor_Special-Blazing___Light_Faces-WEB-2017-2FAST4U MP3/FLAC 2FAST4U 71,38 MB 7 2017-10-19
Yallinn-Take_It_Easy-WEB-2017-2FAST4U MP3/FLAC 2FAST4U 42,99 MB 8 2017-10-19
Almuneda_Gonzalez-DJ_Tools_Vol_024-WEB-2017-2FAST4U MP3/FLAC 2FAST4U 10,50 MB 21 2017-10-19
Kevin_Holdeen-My_Own_Paradise_EP-WEB-2017-2FAST4U MP3/FLAC 2FAST4U 48,07 MB 7 2017-10-19